AAL8842 MKJS-KPHL
Flight info
| Callsign | AAL8842 |
|---|---|
| Flight time | N/A |
| Altitude | 37000 |
| Route | ALTIB UM779 ZEUSS/N0448F370 Y329 ZFP BR65V ADOOR M202 ETECK GRUBR OSTNN AR3 GARIC ZORDO BBDOL PAATS4 |
| Aircraft | A319/M-SDE3FGHIRWY/LB1 |
Departure
| Time | N/A |
|---|---|
| Airport | Sangster International Airport (MKJS) |
Arrival
| Time | 2026-05-03 21:52 |
|---|---|
| Airport | Philadelphia International Airport (KPHL) |
| Time | Latitude | Longitude | Altitude | Speed | Heading |
|---|---|---|---|---|---|
| 2026-05-03 20:15 | 29.83205 | -78.52344 | 37100 ft | 469 kts | 341° |
| 2026-05-03 20:15 | 29.89701 | -78.53075 | 37100 ft | 469 kts | 341° |
| 2026-05-03 20:16 | 29.96215 | -78.53804 | 37102 ft | 471 kts | 341° |
| 2026-05-03 20:16 | 30.02704 | -78.54520 | 37102 ft | 469 kts | 341° |
| 2026-05-03 20:17 | 30.09195 | -78.55234 | 37102 ft | 468 kts | 340° |
| 2026-05-03 20:17 | 30.15722 | -78.55860 | 37098 ft | 480 kts | 346° |
| 2026-05-03 20:17 | 30.19128 | -78.55524 | 37108 ft | 494 kts | 354° |
| 2026-05-03 20:18 | 30.22558 | -78.55019 | 37105 ft | 495 kts | 355° |
| 2026-05-03 20:18 | 30.29360 | -78.53908 | 37101 ft | 496 kts | 355° |
| 2026-05-03 20:19 | 30.36196 | -78.52742 | 37108 ft | 496 kts | 356° |
| 2026-05-03 20:19 | 30.43005 | -78.51570 | 37125 ft | 497 kts | 356° |
| 2026-05-03 20:20 | 30.49849 | -78.50387 | 37127 ft | 497 kts | 355° |
| 2026-05-03 20:20 | 30.56699 | -78.49201 | 37128 ft | 497 kts | 356° |
| 2026-05-03 20:21 | 30.63503 | -78.48019 | 37141 ft | 497 kts | 355° |
| 2026-05-03 20:21 | 30.70367 | -78.46825 | 37142 ft | 497 kts | 355° |
| 2026-05-03 20:22 | 30.77222 | -78.45632 | 37143 ft | 499 kts | 355° |
| 2026-05-03 20:22 | 30.84077 | -78.44435 | 37142 ft | 500 kts | 355° |
| 2026-05-03 20:23 | 30.90959 | -78.43229 | 37143 ft | 500 kts | 355° |
| 2026-05-03 20:23 | 30.97840 | -78.42023 | 37143 ft | 500 kts | 355° |
| 2026-05-03 20:24 | 31.04686 | -78.40821 | 37143 ft | 500 kts | 355° |
| 2026-05-03 20:24 | 31.11619 | -78.39602 | 37143 ft | 500 kts | 355° |
| 2026-05-03 20:25 | 31.18472 | -78.38395 | 37138 ft | 500 kts | 355° |
| 2026-05-03 20:25 | 31.25357 | -78.37181 | 37130 ft | 500 kts | 355° |
| 2026-05-03 20:26 | 31.32245 | -78.35964 | 37129 ft | 500 kts | 355° |
| 2026-05-03 20:26 | 31.39083 | -78.34755 | 37129 ft | 500 kts | 355° |
| 2026-05-03 20:27 | 31.45980 | -78.33533 | 37129 ft | 500 kts | 355° |
| 2026-05-03 20:27 | 31.52870 | -78.32311 | 37130 ft | 501 kts | 355° |
| 2026-05-03 20:28 | 31.59767 | -78.31085 | 37130 ft | 500 kts | 355° |
| 2026-05-03 20:28 | 31.66559 | -78.29877 | 37130 ft | 501 kts | 355° |
| 2026-05-03 20:29 | 31.73444 | -78.28650 | 37130 ft | 501 kts | 355° |
| 2026-05-03 20:29 | 31.80345 | -78.27418 | 37129 ft | 501 kts | 354° |
| 2026-05-03 20:30 | 31.87247 | -78.26184 | 37129 ft | 501 kts | 354° |
| 2026-05-03 20:30 | 31.94102 | -78.24957 | 37130 ft | 501 kts | 354° |
| 2026-05-03 20:31 | 32.01007 | -78.23719 | 37130 ft | 501 kts | 354° |
| 2026-05-03 20:31 | 32.07919 | -78.22477 | 37128 ft | 501 kts | 354° |
| 2026-05-03 20:32 | 32.14785 | -78.21243 | 37127 ft | 501 kts | 354° |
| 2026-05-03 20:32 | 32.21686 | -78.20000 | 37127 ft | 501 kts | 354° |
| 2026-05-03 20:33 | 32.28584 | -78.18755 | 37134 ft | 501 kts | 355° |
| 2026-05-03 20:33 | 32.35489 | -78.17507 | 37136 ft | 501 kts | 355° |
| 2026-05-03 20:34 | 32.42383 | -78.16260 | 37137 ft | 501 kts | 355° |
| 2026-05-03 20:34 | 32.49240 | -78.15014 | 37139 ft | 498 kts | 354° |
| 2026-05-03 20:35 | 32.56064 | -78.13777 | 37139 ft | 498 kts | 354° |
| 2026-05-03 20:35 | 32.62882 | -78.12533 | 37138 ft | 491 kts | 354° |
| 2026-05-03 20:36 | 32.69608 | -78.11307 | 37137 ft | 486 kts | 354° |
| 2026-05-03 20:36 | 32.76237 | -78.10099 | 37137 ft | 482 kts | 354° |
| 2026-05-03 20:37 | 32.82842 | -78.08893 | 37129 ft | 479 kts | 354° |
| 2026-05-03 20:37 | 32.89409 | -78.07693 | 37128 ft | 475 kts | 354° |
| 2026-05-03 20:38 | 32.95919 | -78.06500 | 37125 ft | 472 kts | 354° |
| 2026-05-03 20:38 | 33.02353 | -78.05319 | 37124 ft | 469 kts | 354° |
| 2026-05-03 20:39 | 33.08792 | -78.04137 | 37125 ft | 466 kts | 354° |
| 2026-05-03 20:39 | 33.15192 | -78.02958 | 37123 ft | 463 kts | 354° |
| 2026-05-03 20:40 | 33.21547 | -78.01787 | 37123 ft | 460 kts | 354° |
| 2026-05-03 20:40 | 33.27818 | -78.00631 | 37123 ft | 457 kts | 354° |
| 2026-05-03 20:41 | 33.34098 | -77.99468 | 37122 ft | 455 kts | 353° |
| 2026-05-03 20:41 | 33.40351 | -77.98311 | 37123 ft | 452 kts | 353° |
| 2026-05-03 20:42 | 33.46541 | -77.97165 | 37123 ft | 451 kts | 353° |
| 2026-05-03 20:42 | 33.52730 | -77.96052 | 37121 ft | 444 kts | 350° |
| 2026-05-03 20:43 | 33.58849 | -77.95396 | 37124 ft | 439 kts | 348° |
| 2026-05-03 20:43 | 33.64891 | -77.94793 | 37121 ft | 438 kts | 348° |
| 2026-05-03 20:44 | 33.70955 | -77.94187 | 37122 ft | 436 kts | 348° |
| 2026-05-03 20:44 | 33.76977 | -77.93586 | 37121 ft | 433 kts | 348° |
| 2026-05-03 20:45 | 33.82992 | -77.92987 | 37113 ft | 432 kts | 348° |
| 2026-05-03 20:45 | 33.88977 | -77.92390 | 37112 ft | 431 kts | 348° |
| 2026-05-03 20:46 | 33.94953 | -77.91794 | 37111 ft | 430 kts | 348° |
| 2026-05-03 20:46 | 34.00881 | -77.91202 | 37111 ft | 429 kts | 348° |
| 2026-05-03 20:47 | 34.06825 | -77.90607 | 37115 ft | 428 kts | 348° |
| 2026-05-03 20:47 | 34.12752 | -77.90013 | 37122 ft | 427 kts | 348° |
| 2026-05-03 20:48 | 34.18673 | -77.89420 | 37125 ft | 426 kts | 348° |
| 2026-05-03 20:48 | 34.24569 | -77.88828 | 37125 ft | 424 kts | 348° |
| 2026-05-03 20:49 | 34.30444 | -77.88236 | 37128 ft | 422 kts | 348° |
| 2026-05-03 20:49 | 34.36271 | -77.87649 | 37128 ft | 422 kts | 348° |
| 2026-05-03 20:50 | 34.42116 | -77.87060 | 37128 ft | 421 kts | 348° |
| 2026-05-03 20:50 | 34.47959 | -77.86470 | 37122 ft | 420 kts | 348° |
| 2026-05-03 20:51 | 34.53742 | -77.85885 | 37118 ft | 418 kts | 348° |
| 2026-05-03 20:51 | 34.59541 | -77.85297 | 37116 ft | 417 kts | 348° |
| 2026-05-03 20:52 | 34.65284 | -77.84714 | 37113 ft | 415 kts | 348° |
| 2026-05-03 20:52 | 34.71031 | -77.84130 | 37112 ft | 414 kts | 348° |
| 2026-05-03 20:53 | 34.76775 | -77.83546 | 37112 ft | 413 kts | 348° |
| 2026-05-03 20:53 | 34.82470 | -77.82967 | 37111 ft | 411 kts | 348° |
| 2026-05-03 20:54 | 34.87207 | -77.82540 | 37111 ft | 402 kts | 344° |
| 2026-05-03 20:54 | 34.95523 | -77.82575 | 37111 ft | 396 kts | 343° |
| 2026-05-03 20:55 | 35.01026 | -77.82618 | 37110 ft | 395 kts | 343° |
| 2026-05-03 20:55 | 35.06526 | -77.82662 | 37110 ft | 393 kts | 343° |
| 2026-05-03 20:56 | 35.11992 | -77.82704 | 37110 ft | 392 kts | 343° |
| 2026-05-03 20:56 | 35.17403 | -77.82744 | 37108 ft | 390 kts | 343° |
| 2026-05-03 20:57 | 35.22831 | -77.82786 | 37108 ft | 388 kts | 343° |
| 2026-05-03 20:57 | 35.28231 | -77.82826 | 37106 ft | 387 kts | 343° |
| 2026-05-03 20:58 | 35.33597 | -77.82867 | 37104 ft | 385 kts | 343° |
| 2026-05-03 20:58 | 35.38931 | -77.82908 | 37103 ft | 384 kts | 344° |
| 2026-05-03 20:59 | 35.44278 | -77.82949 | 37101 ft | 383 kts | 344° |
| 2026-05-03 20:59 | 35.49681 | -77.83000 | 37105 ft | 395 kts | 344° |
| 2026-05-03 21:00 | 35.54327 | -77.83044 | 37105 ft | 408 kts | 345° |
| 2026-05-03 21:00 | 35.61083 | -77.83102 | 37103 ft | 425 kts | 346° |
| 2026-05-03 21:01 | 35.67106 | -77.83150 | 37101 ft | 439 kts | 346° |
| 2026-05-03 21:01 | 35.73312 | -77.83197 | 37100 ft | 449 kts | 347° |
| 2026-05-03 21:02 | 35.79577 | -77.83236 | 37098 ft | 448 kts | 347° |
| 2026-05-03 21:02 | 35.85755 | -77.83277 | 37099 ft | 447 kts | 347° |
| 2026-05-03 21:03 | 35.91986 | -77.83321 | 37099 ft | 447 kts | 347° |
| 2026-05-03 21:03 | 35.98222 | -77.83367 | 37100 ft | 447 kts | 347° |
| 2026-05-03 21:04 | 36.04458 | -77.83413 | 37101 ft | 447 kts | 347° |
| 2026-05-03 21:04 | 36.10712 | -77.83468 | 37103 ft | 458 kts | 347° |
| 2026-05-03 21:05 | 36.17185 | -77.83525 | 37104 ft | 469 kts | 347° |
| 2026-05-03 21:05 | 36.23763 | -77.83577 | 37104 ft | 476 kts | 348° |
| 2026-05-03 21:06 | 36.30386 | -77.83625 | 37104 ft | 479 kts | 348° |
| 2026-05-03 21:06 | 36.37076 | -77.83674 | 37107 ft | 481 kts | 348° |
| 2026-05-03 21:07 | 36.43790 | -77.83723 | 37119 ft | 482 kts | 348° |
| 2026-05-03 21:07 | 36.50451 | -77.83773 | 37112 ft | 482 kts | 348° |
| 2026-05-03 21:08 | 36.57169 | -77.83823 | 37117 ft | 482 kts | 348° |
| 2026-05-03 21:08 | 36.63893 | -77.83874 | 37115 ft | 482 kts | 348° |
| 2026-05-03 21:09 | 36.70601 | -77.83925 | 37113 ft | 482 kts | 348° |
| 2026-05-03 21:09 | 36.77270 | -77.83977 | 37096 ft | 482 kts | 348° |
| 2026-05-03 21:10 | 36.83974 | -77.84030 | 37092 ft | 482 kts | 348° |
| 2026-05-03 21:10 | 36.90695 | -77.84082 | 37098 ft | 481 kts | 349° |
| 2026-05-03 21:11 | 36.97366 | -77.84135 | 37088 ft | 481 kts | 349° |
| 2026-05-03 21:11 | 37.04060 | -77.84186 | 37082 ft | 480 kts | 349° |
| 2026-05-03 21:12 | 37.10754 | -77.84240 | 37074 ft | 480 kts | 349° |
| 2026-05-03 21:12 | 37.17402 | -77.84292 | 37074 ft | 479 kts | 349° |
| 2026-05-03 21:13 | 37.24066 | -77.84345 | 37074 ft | 479 kts | 349° |
| 2026-05-03 21:13 | 37.30695 | -77.84390 | 37072 ft | 464 kts | 349° |
| 2026-05-03 21:14 | 37.33878 | -77.84403 | 37072 ft | 448 kts | 349° |
| 2026-05-03 21:14 | 37.36963 | -77.84424 | 37075 ft | 444 kts | 349° |
| 2026-05-03 21:14 | 37.43194 | -77.84489 | 37076 ft | 454 kts | 349° |
| 2026-05-03 21:15 | 37.49593 | -77.84550 | 37076 ft | 464 kts | 349° |
| 2026-05-03 21:15 | 37.56035 | -77.84597 | 37071 ft | 453 kts | 349° |
| 2026-05-03 21:16 | 37.62202 | -77.83480 | 37070 ft | 466 kts | 11° |
| 2026-05-03 21:16 | 37.65148 | -77.81529 | 37071 ft | 488 kts | 26° |
| 2026-05-03 21:16 | 37.67762 | -77.78671 | 37082 ft | 499 kts | 35° |
| 2026-05-03 21:17 | 37.71956 | -77.73768 | 37072 ft | 501 kts | 37° |
| 2026-05-03 21:17 | 37.77757 | -77.66391 | 37070 ft | 502 kts | 38° |
| 2026-05-03 21:18 | 37.82619 | -77.60135 | 37070 ft | 502 kts | 38° |
| 2026-05-03 21:18 | 37.87519 | -77.53812 | 37070 ft | 503 kts | 38° |
| 2026-05-03 21:19 | 37.92407 | -77.47482 | 37068 ft | 503 kts | 38° |
| 2026-05-03 21:19 | 37.97301 | -77.41128 | 37065 ft | 504 kts | 38° |
| 2026-05-03 21:20 | 38.02190 | -77.34762 | 37059 ft | 501 kts | 39° |
| 2026-05-03 21:20 | 38.07027 | -77.28447 | 37056 ft | 499 kts | 39° |
| 2026-05-03 21:21 | 38.11885 | -77.22094 | 37051 ft | 501 kts | 39° |
| 2026-05-03 21:21 | 38.16699 | -77.15782 | 37050 ft | 500 kts | 39° |
| 2026-05-03 21:22 | 38.21550 | -77.09410 | 37054 ft | 501 kts | 39° |
| 2026-05-03 21:22 | 38.26402 | -77.03025 | 37061 ft | 501 kts | 39° |
| 2026-05-03 21:23 | 38.31226 | -76.96662 | 37054 ft | 502 kts | 40° |
| 2026-05-03 21:23 | 38.36076 | -76.90251 | 37048 ft | 501 kts | 40° |
| 2026-05-03 21:24 | 38.40931 | -76.83821 | 36162 ft | 508 kts | 40° |
| 2026-05-03 21:24 | 38.43407 | -76.80542 | 35084 ft | 518 kts | 40° |
| 2026-05-03 21:24 | 38.45870 | -76.77264 | 34468 ft | 515 kts | 40° |
| 2026-05-03 21:25 | 38.48354 | -76.73959 | 33726 ft | 514 kts | 39° |
| 2026-05-03 21:25 | 38.50816 | -76.70680 | 33288 ft | 507 kts | 39° |
| 2026-05-03 21:25 | 38.53243 | -76.67447 | 32668 ft | 503 kts | 39° |
| 2026-05-03 21:25 | 38.55650 | -76.64235 | 32259 ft | 495 kts | 39° |
| 2026-05-03 21:26 | 38.58024 | -76.61066 | 31711 ft | 490 kts | 39° |
| 2026-05-03 21:26 | 38.60337 | -76.57974 | 31224 ft | 484 kts | 39° |
| 2026-05-03 21:26 | 38.62655 | -76.54874 | 30694 ft | 479 kts | 39° |
| 2026-05-03 21:26 | 38.64942 | -76.51813 | 30265 ft | 472 kts | 39° |
| 2026-05-03 21:27 | 38.67203 | -76.48782 | 29719 ft | 468 kts | 39° |
| 2026-05-03 21:27 | 38.69439 | -76.45780 | 29177 ft | 464 kts | 39° |
| 2026-05-03 21:27 | 38.71663 | -76.42795 | 28761 ft | 457 kts | 39° |
| 2026-05-03 21:27 | 38.73837 | -76.39874 | 28207 ft | 454 kts | 39° |
| 2026-05-03 21:28 | 38.75982 | -76.36987 | 27773 ft | 447 kts | 39° |
| 2026-05-03 21:28 | 38.78125 | -76.34100 | 27281 ft | 443 kts | 39° |
| 2026-05-03 21:28 | 38.80242 | -76.31244 | 26722 ft | 439 kts | 39° |
| 2026-05-03 21:28 | 38.82327 | -76.28428 | 26296 ft | 433 kts | 39° |
| 2026-05-03 21:29 | 38.84398 | -76.25628 | 25840 ft | 428 kts | 39° |
| 2026-05-03 21:29 | 38.86434 | -76.22872 | 25277 ft | 426 kts | 39° |
| 2026-05-03 21:29 | 38.88425 | -76.20176 | 24903 ft | 418 kts | 39° |
| 2026-05-03 21:29 | 38.90416 | -76.17476 | 24434 ft | 414 kts | 39° |
| 2026-05-03 21:30 | 38.92385 | -76.14804 | 23915 ft | 411 kts | 39° |
| 2026-05-03 21:30 | 38.94339 | -76.12152 | 23506 ft | 405 kts | 39° |
| 2026-05-03 21:30 | 38.96269 | -76.09530 | 23019 ft | 402 kts | 39° |
| 2026-05-03 21:30 | 38.98182 | -76.06929 | 22528 ft | 399 kts | 39° |
| 2026-05-03 21:31 | 39.00083 | -76.04342 | 22062 ft | 396 kts | 39° |
| 2026-05-03 21:31 | 39.01962 | -76.01781 | 21714 ft | 391 kts | 39° |
| 2026-05-03 21:31 | 39.03828 | -75.99240 | 21230 ft | 389 kts | 39° |
| 2026-05-03 21:31 | 39.05692 | -75.96700 | 20769 ft | 387 kts | 39° |
| 2026-05-03 21:32 | 39.07529 | -75.94189 | 20314 ft | 385 kts | 39° |
| 2026-05-03 21:32 | 39.09356 | -75.91690 | 19906 ft | 382 kts | 39° |
| 2026-05-03 21:32 | 39.11147 | -75.89242 | 19596 ft | 376 kts | 39° |
| 2026-05-03 21:32 | 39.12933 | -75.86797 | 19146 ft | 375 kts | 39° |
| 2026-05-03 21:33 | 39.14721 | -75.84347 | 18720 ft | 373 kts | 39° |
| 2026-05-03 21:33 | 39.16486 | -75.81928 | 18325 ft | 370 kts | 39° |
| 2026-05-03 21:33 | 39.18237 | -75.79525 | 18016 ft | 365 kts | 39° |
| 2026-05-03 21:33 | 39.19972 | -75.77144 | 17605 ft | 363 kts | 39° |
| 2026-05-03 21:34 | 39.21699 | -75.74773 | 17207 ft | 361 kts | 39° |
| 2026-05-03 21:34 | 39.23415 | -75.72415 | 16824 ft | 359 kts | 39° |
| 2026-05-03 21:34 | 39.25091 | -75.70107 | 16459 ft | 356 kts | 39° |
| 2026-05-03 21:34 | 39.26781 | -75.67779 | 16185 ft | 351 kts | 40° |
| 2026-05-03 21:35 | 39.28434 | -75.65518 | 16105 ft | 339 kts | 38° |
| 2026-05-03 21:35 | 39.30152 | -75.63528 | 16027 ft | 324 kts | 31° |
| 2026-05-03 21:35 | 39.31959 | -75.61918 | 15950 ft | 310 kts | 25° |
| 2026-05-03 21:35 | 39.33770 | -75.60463 | 15719 ft | 306 kts | 24° |
| 2026-05-03 21:36 | 39.35581 | -75.59036 | 15473 ft | 303 kts | 24° |
| 2026-05-03 21:36 | 39.37345 | -75.57584 | 15151 ft | 308 kts | 31° |
| 2026-05-03 21:36 | 39.38796 | -75.55435 | 14869 ft | 320 kts | 52° |
| 2026-05-03 21:36 | 39.39735 | -75.52797 | 14598 ft | 326 kts | 61° |
| 2026-05-03 21:37 | 39.40596 | -75.50093 | 14296 ft | 325 kts | 61° |
| 2026-05-03 21:37 | 39.41440 | -75.47389 | 14029 ft | 323 kts | 62° |
| 2026-05-03 21:37 | 39.42270 | -75.44691 | 13773 ft | 321 kts | 62° |
| 2026-05-03 21:37 | 39.43087 | -75.42011 | 13467 ft | 320 kts | 62° |
| 2026-05-03 21:38 | 39.43890 | -75.39364 | 13151 ft | 319 kts | 62° |
| 2026-05-03 21:38 | 39.44692 | -75.36705 | 12858 ft | 317 kts | 63° |
| 2026-05-03 21:38 | 39.45493 | -75.34049 | 12542 ft | 316 kts | 62° |
| 2026-05-03 21:38 | 39.46493 | -75.31575 | 12245 ft | 307 kts | 50° |
| 2026-05-03 21:39 | 39.47829 | -75.29467 | 11950 ft | 299 kts | 39° |
| 2026-05-03 21:39 | 39.49299 | -75.27577 | 11598 ft | 297 kts | 38° |
| 2026-05-03 21:39 | 39.50773 | -75.25721 | 11281 ft | 295 kts | 38° |
| 2026-05-03 21:39 | 39.52243 | -75.23890 | 10933 ft | 293 kts | 37° |
| 2026-05-03 21:40 | 39.53719 | -75.22063 | 10573 ft | 292 kts | 37° |
| 2026-05-03 21:40 | 39.55183 | -75.20256 | 10242 ft | 289 kts | 37° |
| 2026-05-03 21:40 | 39.56602 | -75.18504 | 10095 ft | 279 kts | 37° |
| 2026-05-03 21:40 | 39.57974 | -75.16812 | 10007 ft | 266 kts | 37° |
| 2026-05-03 21:41 | 39.59285 | -75.15196 | 9913 ft | 254 kts | 37° |
| 2026-05-03 21:41 | 39.60532 | -75.13658 | 9816 ft | 242 kts | 37° |
| 2026-05-03 21:41 | 39.61723 | -75.12192 | 9700 ft | 230 kts | 36° |
| 2026-05-03 21:41 | 39.62864 | -75.10788 | 9569 ft | 222 kts | 36° |
| 2026-05-03 21:42 | 39.63968 | -75.09433 | 9260 ft | 221 kts | 36° |
| 2026-05-03 21:42 | 39.65096 | -75.08078 | 8886 ft | 218 kts | 30° |
| 2026-05-03 21:42 | 39.66392 | -75.07360 | 8446 ft | 203 kts | 360° |
| 2026-05-03 21:42 | 39.67767 | -75.07403 | 8154 ft | 194 kts | 352° |
| 2026-05-03 21:43 | 39.69112 | -75.07500 | 7953 ft | 193 kts | 351° |
| 2026-05-03 21:43 | 39.70460 | -75.07619 | 7762 ft | 193 kts | 350° |
| 2026-05-03 21:43 | 39.71342 | -75.07706 | 7646 ft | 193 kts | 350° |
| 2026-05-03 21:43 | 39.72706 | -75.07690 | 7299 ft | 213 kts | 7° |
| 2026-05-03 21:44 | 39.74129 | -75.06712 | 7009 ft | 248 kts | 35° |
| 2026-05-03 21:44 | 39.75752 | -75.04508 | 6606 ft | 257 kts | 41° |
| 2026-05-03 21:44 | 39.76943 | -75.02805 | 6419 ft | 254 kts | 42° |
| 2026-05-03 21:44 | 39.78136 | -75.01086 | 6275 ft | 257 kts | 42° |
| 2026-05-03 21:45 | 39.78945 | -74.99915 | 6076 ft | 256 kts | 42° |
| 2026-05-03 21:45 | 39.80127 | -74.98195 | 5769 ft | 255 kts | 42° |
| 2026-05-03 21:45 | 39.81300 | -74.96485 | 5456 ft | 255 kts | 42° |
| 2026-05-03 21:45 | 39.82474 | -74.94772 | 5131 ft | 253 kts | 42° |
| 2026-05-03 21:46 | 39.83668 | -74.93109 | 4806 ft | 248 kts | 34° |
| 2026-05-03 21:46 | 39.85138 | -74.92078 | 4479 ft | 236 kts | 11° |
| 2026-05-03 21:46 | 39.86735 | -74.91927 | 4167 ft | 228 kts | 347° |
| 2026-05-03 21:46 | 39.88170 | -74.92671 | 3842 ft | 221 kts | 321° |
| 2026-05-03 21:47 | 39.89090 | -74.94214 | 3568 ft | 216 kts | 293° |
| 2026-05-03 21:47 | 39.89557 | -74.96036 | 3327 ft | 209 kts | 291° |
| 2026-05-03 21:47 | 39.90121 | -74.97722 | 3067 ft | 202 kts | 306° |
| 2026-05-03 21:47 | 39.90906 | -74.99160 | 2983 ft | 189 kts | 295° |
| 2026-05-03 21:48 | 39.91230 | -75.00783 | 2994 ft | 180 kts | 279° |
| 2026-05-03 21:48 | 39.91238 | -75.02375 | 2992 ft | 174 kts | 270° |
| 2026-05-03 21:48 | 39.91081 | -75.03934 | 2837 ft | 174 kts | 265° |
| 2026-05-03 21:48 | 39.90836 | -75.05465 | 2620 ft | 168 kts | 262° |
| 2026-05-03 21:49 | 39.90581 | -75.06850 | 2397 ft | 147 kts | 262° |
| 2026-05-03 21:49 | 39.90343 | -75.08105 | 2198 ft | 140 kts | 261° |
| 2026-05-03 21:49 | 39.90103 | -75.09333 | 2026 ft | 139 kts | 261° |
| 2026-05-03 21:49 | 39.89862 | -75.10552 | 1833 ft | 138 kts | 260° |
| 2026-05-03 21:50 | 39.89621 | -75.11766 | 1652 ft | 138 kts | 259° |
| 2026-05-03 21:50 | 39.89386 | -75.12960 | 1475 ft | 138 kts | 260° |
| 2026-05-03 21:50 | 39.89149 | -75.14157 | 1296 ft | 136 kts | 257° |
| 2026-05-03 21:50 | 39.88906 | -75.15365 | 1113 ft | 135 kts | 257° |
| 2026-05-03 21:51 | 39.88667 | -75.16550 | 937 ft | 136 kts | 257° |
| 2026-05-03 21:51 | 39.88428 | -75.17744 | 767 ft | 133 kts | 258° |
| 2026-05-03 21:51 | 39.88193 | -75.18927 | 593 ft | 135 kts | 258° |
| 2026-05-03 21:51 | 39.87957 | -75.20110 | 415 ft | 136 kts | 257° |
| 2026-05-03 21:52 | 39.87725 | -75.21274 | 246 ft | 134 kts | 258° |
| 2026-05-03 21:52 | 39.87492 | -75.22447 | 95 ft | 134 kts | 257° |
| 2026-05-03 21:52 | 39.87283 | -75.23519 | 51 ft | 96 kts | 256° |
| 2026-05-03 21:52 | 39.87173 | -75.24040 | 51 ft | 42 kts | 257° |
| 2026-05-03 21:53 | 39.87187 | -75.24326 | 51 ft | 20 kts | 287° |
| 2026-05-03 21:53 | 39.87197 | -75.24506 | 51 ft | 20 kts | 257° |
| 2026-05-03 21:53 | 39.87164 | -75.24683 | 51 ft | 20 kts | 252° |
| 2026-05-03 21:53 | 39.87121 | -75.24856 | 51 ft | 20 kts | 254° |
| 2026-05-03 21:54 | 39.87171 | -75.24974 | 51 ft | 16 kts | 333° |
| 2026-05-03 21:54 | 39.87174 | -75.25090 | 51 ft | 8 kts | 255° |
| 2026-05-03 21:54 | 39.87168 | -75.25139 | 51 ft | 5 kts | 281° |
| 2026-05-03 21:54 | 39.87165 | -75.25186 | 51 ft | 7 kts | 265° |
| 2026-05-03 21:55 | 39.87184 | -75.25246 | 51 ft | 7 kts | 303° |
| 2026-05-03 21:55 | 39.87209 | -75.25256 | 51 ft | 0 kts | 25° |
| 2026-05-03 21:55 | 39.87211 | -75.25254 | 51 ft | 2 kts | 38° |
| 2026-05-03 21:55 | 39.87213 | -75.25252 | 51 ft | 0 kts | 37° |